Aviation Digital Data Service (ADDS)

Output produced by METARs form (1026 UTC 24 February 2017)
found at http://aviationweather.gov/adds/metars/
 
KCLE 240832Z 2409/2512 08006KT 5SM BR SCT025 BKN050 
     TEMPO 2409/2413 2SM -SHRA BR BKN025 
     FM241300 17010KT 6SM BR VCSH SCT025 BKN040 
     FM241800 19016G26KT P6SM SCT045 BKN200 
     FM250600 19013KT P6SM -SHRA VCTS BKN040CB 
     FM251000 22013KT P6SM OVC015